Ship Status Report: callsign OS8154

sailwx.info

Track history (hours):
 
Tides and Currents Weather Stations Pressure Air Temp Water Temp Dewpoint Dewpoint Depression Visibility Wind Speed Wind Dir Waves Ship Positions

Callsign OS8154 (name unknown)

Last reported at 2016-Aug-25 17:00 UTC. Time now 2016-Aug-25 20:10 UTC.
Position N 67°36' W 053°54'.

Barometer 1012.3 mb
Air temperature 7.3 ° C

Date/timePositionNaut miles runAvg speedWind from/ knotsBaromVisibWave heightAir tempDewpointWater temp
2016-Aug-25 17:00N 67°36' W 053°54'6 6.0 1012.3 7.3
2016-Aug-25 16:00N 67°30' W 053°54'1212.2 1012.1 7.0
2016-Aug-25 15:00N 67°18' W 054°00'11 3.7 1011.9 8.0
2016-Aug-25 12:00N 67°12' W 053°36'0 0.0 1011.5 11.5
2016-Aug-25 10:00N 67°12' W 053°36'0 0.0 1011.2 11.0
2016-Aug-25 09:00N 67°12' W 053°36'0 0.0 1010.7 8.3
2016-Aug-25 08:00N 67°12' W 053°36'0 0.0 1010.1 8.3
2016-Aug-25 07:00N 67°12' W 053°36'0 0.0 1009.6 9.0
2016-Aug-25 06:00N 67°12' W 053°36'0 0.0 1009.1 9.3
2016-Aug-25 05:00N 67°12' W 053°36'0 0.0 1008.4 7.5
2016-Aug-25 03:00N 67°12' W 053°36'0 0.0 1007.8 10.3
2016-Aug-25 02:00N 67°12' W 053°36'0 0.0 1007.7 12.3
2016-Aug-25 00:00N 67°12' W 053°36'0 0.0 1008.0 13.3
2016-Aug-24 23:00N 67°12' W 053°36'0 0.0 1008.1 12.8
2016-Aug-24 22:00N 67°12' W 053°36'0 0.0 1008.5 13.8
2016-Aug-24 20:00N 67°12' W 053°36'0 0.0 1009.2 14.8
2016-Aug-24 19:00N 67°12' W 053°36'0 0.0 1009.6 14.5
2016-Aug-24 17:00N 67°12' W 053°36'0 0.0 1010.7 10.8
2016-Aug-24 15:00N 67°12' W 053°36'5 4.7 1011.3 11.5
2016-Aug-24 14:00N 67°12' W 053°24'7 3.5 1011.1 11.5
2016-Aug-24 12:00N 67°12' W 053°42'0 0.0 1012.0 11.5
2016-Aug-24 11:00N 67°12' W 053°42'0 0.0 1012.5 11.8
2016-Aug-24 10:00N 67°12' W 053°42'0 0.0 1012.7 10.3
2016-Aug-24 09:00N 67°12' W 053°42'0 0.0 1013.1 10.3
2016-Aug-24 02:00N 67°12' W 053°42'0 0.0 1013.7 8.5
2016-Aug-24 01:00N 67°12' W 053°42'0 0.0 1014.1 7.8
2016-Aug-24 00:00N 67°12' W 053°42'0 0.0 1014.1 7.5
2016-Aug-23 23:00N 67°12' W 053°42'0 0.0 1014.3 8.3
2016-Aug-23 22:00N 67°12' W 053°42'0 0.0 1014.5 7.8
2016-Aug-23 20:00N 67°12' W 053°42'0 0.0 1014.5 7.0
2016-Aug-23 19:00N 67°12' W 053°42'0 0.0 1014.4 7.0
2016-Aug-23 18:00N 67°12' W 053°42'0 0.0 1014.1 7.5
2016-Aug-23 17:00N 67°12' W 053°42'5 4.7 1014.1 7.3
2016-Aug-23 16:00N 67°12' W 053°54'1212.2 1014.2 6.3
2016-Aug-23 15:00N 67°00' W 054°00'9 4.6 1014.4 5.0
2016-Aug-23 13:00N 66°54' W 053°42'0 0.0 1014.4 8.0
2016-Aug-23 11:00N 66°54' W 053°42'0 0.0 1014.8 7.3
2016-Aug-23 10:00N 66°54' W 053°42'0 0.0 1015.2 6.8
2016-Aug-23 09:00N 66°54' W 053°42'0 0.0 1015.6 7.0
2016-Aug-23 08:00N 66°54' W 053°42'0 0.0 1015.3 6.5
2016-Aug-23 07:00N 66°54' W 053°42'0 0.0 1015.4 7.3
2016-Aug-23 05:00N 66°54' W 053°42'0 0.0 1015.7 7.3
2016-Aug-23 03:00N 66°54' W 053°42'0 0.0 1016.5 7.0
2016-Aug-23 02:00N 66°54' W 053°42'0 0.0 1016.7 7.3
2016-Aug-23 01:00N 66°54' W 053°42'0 0.0 1016.6 6.8
2016-Aug-23 00:00N 66°54' W 053°42'0 0.0 1016.8 7.3
2016-Aug-22 23:00N 66°54' W 053°42'0 0.0 1016.7 7.0
2016-Aug-22 22:00N 66°54' W 053°42'0 0.0 1016.9 7.3
2016-Aug-22 21:00N 66°54' W 053°42'0 0.0 1016.5 8.8
2016-Aug-22 19:00N 66°54' W 053°42'0 0.0 1017.2 7.3
2016-Aug-22 18:00N 66°54' W 053°42'0 0.0 1017.8 6.8
2016-Aug-22 17:00N 66°54' W 053°42'0 0.0 1017.8 6.0
2016-Aug-22 15:00N 66°54' W 053°42'0 0.0 1018.6 3.5
2016-Aug-22 14:00N 66°54' W 053°42'0 0.0 1018.9 4.3
2016-Aug-22 13:00N 66°54' W 053°42'0 0.0 1019.5 4.8
2016-Aug-22 12:00N 66°54' W 053°42'0 0.0 1019.7 3.8
2016-Aug-22 10:00N 66°54' W 053°42'0 0.0 1019.9 2.5
2016-Aug-22 09:00N 66°54' W 053°42'0 0.0 1020.0 1.8
2016-Aug-22 08:00N 66°54' W 053°42'0 0.0 1020.2 1.3
2016-Aug-22 07:00N 66°54' W 053°42'0 0.0 1020.2 1.8
2016-Aug-22 06:00N 66°54' W 053°42'0 0.0 1020.3 2.3
2016-Aug-22 03:00N 66°54' W 053°42'0 0.0 1019.6 2.3
2016-Aug-22 01:00N 66°54' W 053°42'0 0.0 1019.6 2.8
2016-Aug-21 23:00N 66°54' W 053°42'0 0.0 1018.9 4.0
2016-Aug-21 22:00N 66°54' W 053°42'0 0.0 1019.0 4.3
2016-Aug-21 21:00N 66°54' W 053°42'0 0.0 1018.7 4.5
2016-Aug-21 20:00N 66°54' W 053°42'0 0.0 1018.9 5.0
2016-Aug-21 18:00N 66°54' W 053°42'0 0.0 1018.7 6.0
2016-Aug-21 17:00N 66°54' W 053°42'0 0.0 1018.4 5.8
2016-Aug-21 16:00N 66°54' W 053°42'0 0.0 1018.2 5.8
2016-Aug-21 15:00N 66°54' W 053°42'0 0.0 1017.8 4.5
2016-Aug-21 13:00N 66°54' W 053°42'0 0.0 1017.0 4.3
2016-Aug-21 11:00N 66°54' W 053°42'0 0.0 1016.1 4.3
2016-Aug-21 10:00N 66°54' W 053°42'0 0.0 1015.9 4.5
2016-Aug-21 08:00N 66°54' W 053°42'0 0.0 1015.3 3.8
2016-Aug-21 07:00N 66°54' W 053°42'0 0.0 1015.4 4.0
2016-Aug-21 04:00N 66°54' W 053°42'0 0.0 1014.9 4.8
2016-Aug-21 02:00N 66°54' W 053°42'0 0.0 1015.0 5.8
2016-Aug-21 01:00N 66°54' W 053°42'0 0.0 1014.8 6.3
2016-Aug-21 00:00N 66°54' W 053°42'0 0.0 1014.9 6.0
2016-Aug-20 22:00N 66°54' W 053°42'0 0.0 1015.2 6.8
2016-Aug-20 19:00N 66°54' W 053°42'0 0.0 1016.1 6.3
2016-Aug-20 18:00N 66°54' W 053°42'0 0.0 1016.3 6.8
2016-Aug-20 17:00N 66°54' W 053°42'0 0.0 1016.3 5.5
2016-Aug-20 16:00N 66°54' W 053°42'0 0.0 1016.4 6.3
2016-Aug-20 15:00N 66°54' W 053°42'0 0.0 1016.5 5.8
2016-Aug-20 14:00N 66°54' W 053°42'0 0.0 1016.8 5.3
2016-Aug-20 13:00N 66°54' W 053°42'0 0.0 1016.8 5.3
2016-Aug-20 12:00N 66°54' W 053°42'0 0.0 1016.9 4.8
2016-Aug-20 11:00N 66°54' W 053°42'0 0.0 1017.4 3.8
2016-Aug-20 10:00N 66°54' W 053°42'0 0.0 1017.4 3.8
2016-Aug-20 09:00N 66°54' W 053°42'0 0.0 1017.5 3.8
2016-Aug-20 08:00N 66°54' W 053°42'0 0.0 1017.2 4.0
2016-Aug-20 07:00N 66°54' W 053°42'0 0.0 1017.0 3.3
2016-Aug-20 04:00N 66°54' W 053°42'0 0.0 1017.0 3.8
2016-Aug-20 02:00N 66°54' W 053°42'0 0.0 1016.5 5.5
2016-Aug-20 00:00N 66°54' W 053°42'0 0.0 1016.4 5.5
2016-Aug-19 22:00N 66°54' W 053°42'15 5.1 1016.2 7.0
2016-Aug-19 19:00N 67°06' W 054°06'1212.2 1015.6 5.0
2016-Aug-19 18:00N 67°18' W 054°00'6 6.0 1015.2 4.5
2016-Aug-19 17:00N 67°24' W 054°00'6 6.4 1014.7 4.8
2016-Aug-19 16:00N 67°30' W 053°54'6 6.0 1014.6 5.0
2016-Aug-19 15:00N 67°36' W 053°54'9 9.1 1014.6 4.8
2016-Aug-19 14:00N 67°42' W 053°36'0 0.0 1014.5 6.5
2016-Aug-19 13:00N 67°42' W 053°36'0 0.0 1014.3 5.3
2016-Aug-19 12:00N 67°42' W 053°36'0 0.0 1014.0 5.0
2016-Aug-19 11:00N 67°42' W 053°36'0 0.0 1014.0 4.3
2016-Aug-19 10:00N 67°42' W 053°36'0 0.0 1013.8 5.0
2016-Aug-19 09:00N 67°42' W 053°36'0 0.0 1013.6 4.3
2016-Aug-19 08:00N 67°42' W 053°36'0 0.0 1013.5 3.5
2016-Aug-19 07:00N 67°42' W 053°36'0 0.0 1013.1 3.5
2016-Aug-19 03:00N 67°42' W 053°36'0 0.0 1011.6 3.0
2016-Aug-19 02:00N 67°42' W 053°36'0 0.0 1011.3 3.3
2016-Aug-19 00:00N 67°42' W 053°36'0 0.0 1010.9 3.8
2016-Aug-18 23:00N 67°42' W 053°36'0 0.0 1010.6 3.5
2016-Aug-18 22:00N 67°42' W 053°36'6 6.4 1010.2 3.8
2016-Aug-18 21:00N 67°36' W 053°42'18 9.0 1010.1 3.8
2016-Aug-18 19:00N 67°54' W 053°42'6 6.4 1008.5 3.8
2016-Aug-18 18:00N 68°00' W 053°36'6 6.0 1007.9 3.8
2016-Aug-18 17:00N 68°06' W 053°36'2 2.2 1007.5 4.3
2016-Aug-18 16:00N 68°06' W 053°30'1212.2 1007.3 2.8
2016-Aug-18 15:00N 68°18' W 053°36'2 2.2 1007.3 3.3
2016-Aug-18 14:00N 68°18' W 053°30'0 0.0 1007.1 7.5
2016-Aug-18 13:00N 68°18' W 053°30'0 0.0 1006.8 4.5
2016-Aug-18 11:00N 68°18' W 053°30'0 0.0 1006.6 4.0
2016-Aug-18 10:00N 68°18' W 053°30'0 0.0 1006.3 3.5
2016-Aug-18 09:00N 68°18' W 053°30'0 0.0 1006.2 3.5
2016-Aug-18 08:00N 68°18' W 053°30'0 0.0 1006.0 3.5
2016-Aug-18 07:00N 68°18' W 053°30'0 0.0 1005.8 3.5
2016-Aug-18 06:00N 68°18' W 053°30'0 0.0 1005.6 3.8
2016-Aug-18 05:00N 68°18' W 053°30'0 0.0 1005.6 3.8
2016-Aug-18 03:00N 68°18' W 053°30'0 0.0 1005.5 4.5
2016-Aug-18 02:00N 68°18' W 053°30'0 0.0 1005.6 5.3
2016-Aug-18 01:00N 68°18' W 053°30'0 0.0 1005.6 5.8
2016-Aug-17 22:00N 68°18' W 053°30'0 0.0 1005.4 7.0
2016-Aug-17 21:00N 68°18' W 053°30'0 0.0 1005.4 6.5
2016-Aug-17 20:00N 68°18' W 053°30'6 6.4 1005.4 5.3
2016-Aug-17 19:00N 68°24' W 053°24'7 7.4 1005.5 3.8
2016-Aug-17 18:00N 68°30' W 053°12'0 0.0 1005.3 4.8
2016-Aug-17 17:00N 68°30' W 053°12'2 2.2 1005.2 5.3
2016-Aug-17 16:00N 68°30' W 053°18'6 6.4 1005.3 5.5
2016-Aug-17 15:00N 68°36' W 053°12'7 7.4 1005.5 7.8
2016-Aug-17 14:00N 68°42' W 053°00'2 2.2 1005.6 7.3
2016-Aug-17 13:00N 68°42' W 052°54'0 0.0 1005.7 7.8
2016-Aug-17 11:00N 68°42' W 052°54'0 0.0 1005.6 6.0
2016-Aug-17 10:00N 68°42' W 052°54'0 0.0 1005.4 5.5
2016-Aug-17 09:00N 68°42' W 052°54'0 0.0 1005.4 5.8
2016-Aug-17 08:00N 68°42' W 052°54'0 0.0 1005.3 4.5
2016-Aug-17 07:00N 68°42' W 052°54'0 0.0 1005.1 4.3
2016-Aug-17 06:00N 68°42' W 052°54'0 0.0 1005.0 4.3
2016-Aug-17 05:00N 68°42' W 052°54'0 0.0 1004.7 4.8
2016-Aug-17 01:00N 68°42' W 052°54'0 0.0 1005.1 6.3
2016-Aug-17 00:00N 68°42' W 052°54'0 0.0 1004.9 7.0
2016-Aug-16 23:00N 68°42' W 052°54'0 0.0 1004.8 7.8
2016-Aug-16 22:00N 68°42' W 052°54'0 0.0 1004.7 8.3
2016-Aug-16 19:00N 68°42' W 052°54'19 6.5 1004.7 8.0
2016-Aug-16 16:00N 68°54' W 052°12'9 8.8 1004.6 8.0
2016-Aug-16 15:00N 69°00' W 051°54'9 8.8 1004.7 6.3
2016-Aug-16 14:00N 69°06' W 051°36'6 6.4 1004.7 5.5
2016-Aug-16 13:00N 69°06' W 051°18'6 6.4 1004.7 3.8
2016-Aug-16 12:00N 69°12' W 051°12'0 0.0 1004.8 4.5
2016-Aug-16 11:00N 69°12' W 051°12'2 2.1 1004.7 3.8
2016-Aug-16 10:00N 69°12' W 051°06'0 0.0 1004.4 5.3
2016-Aug-16 07:00N 69°12' W 051°06'0 0.0 1003.7 2.0
2016-Aug-16 06:00N 69°12' W 051°06'0 0.0 1003.5 2.8
2016-Aug-16 05:00N 69°12' W 051°06'0 0.0 1003.1 3.8
2016-Aug-16 04:00N 69°12' W 051°06'0 0.0 1002.9 4.8
2016-Aug-16 02:00N 69°12' W 051°06'2 2.1 1002.8 3.3
2016-Aug-16 01:00N 69°12' W 051°12'0 0.0 1002.5 2.3
2016-Aug-16 00:00N 69°12' W 051°12'7 7.4 1002.5 4.0
2016-Aug-15 23:00N 69°18' W 051°00'0 0.0 1001.9 5.0
2016-Aug-15 22:00N 69°18' W 051°00'0 0.0 1001.7 7.0
2016-Aug-15 21:00N 69°18' W 051°00'0 0.0 1001.8 7.0
2016-Aug-15 20:00N 69°18' W 051°00'0 0.0 1001.8 7.0
2016-Aug-15 19:00N 69°18' W 051°00'6 6.4 1001.6 6.5
2016-Aug-15 18:00N 69°12' W 051°06'0 0.0 1001.5 6.8
2016-Aug-15 17:00N 69°12' W 051°06'   1001.3 6.5
Track history (hours):
 
Tides and Currents Weather Stations Pressure Air Temp Water Temp Dewpoint Dewpoint Depression Visibility Wind Speed Wind Dir Waves Ship Positions

Callsign OS8154 (name unknown)

Last reported at 2016-Aug-25 17:00 UTC. Time now 2016-Aug-25 20:10 UTC.
Position N 67°36' W 053°54'.

Barometer 1012.3 mb
Air temperature 7.3 ° C

Date/timePositionNaut miles runAvg speedWind from/ knotsBaromVisibWave heightAir tempDewpointWater temp
2016-Aug-25 17:00N 67°36' W 053°54'6 6.0 1012.3 7.3
2016-Aug-25 16:00N 67°30' W 053°54'1212.2 1012.1 7.0
2016-Aug-25 15:00N 67°18' W 054°00'11 3.7 1011.9 8.0
2016-Aug-25 12:00N 67°12' W 053°36'0 0.0 1011.5 11.5
2016-Aug-25 10:00N 67°12' W 053°36'0 0.0 1011.2 11.0
2016-Aug-25 09:00N 67°12' W 053°36'0 0.0 1010.7 8.3
2016-Aug-25 08:00N 67°12' W 053°36'0 0.0 1010.1 8.3
2016-Aug-25 07:00N 67°12' W 053°36'0 0.0 1009.6 9.0
2016-Aug-25 06:00N 67°12' W 053°36'0 0.0 1009.1 9.3
2016-Aug-25 05:00N 67°12' W 053°36'0 0.0 1008.4 7.5
2016-Aug-25 03:00N 67°12' W 053°36'0 0.0 1007.8 10.3
2016-Aug-25 02:00N 67°12' W 053°36'0 0.0 1007.7 12.3
2016-Aug-25 00:00N 67°12' W 053°36'0 0.0 1008.0 13.3
2016-Aug-24 23:00N 67°12' W 053°36'0 0.0 1008.1 12.8
2016-Aug-24 22:00N 67°12' W 053°36'0 0.0 1008.5 13.8
2016-Aug-24 20:00N 67°12' W 053°36'0 0.0 1009.2 14.8
2016-Aug-24 19:00N 67°12' W 053°36'0 0.0 1009.6 14.5
2016-Aug-24 17:00N 67°12' W 053°36'0 0.0 1010.7 10.8
2016-Aug-24 15:00N 67°12' W 053°36'5 4.7 1011.3 11.5
2016-Aug-24 14:00N 67°12' W 053°24'7 3.5 1011.1 11.5
2016-Aug-24 12:00N 67°12' W 053°42'0 0.0 1012.0 11.5
2016-Aug-24 11:00N 67°12' W 053°42'0 0.0 1012.5 11.8
2016-Aug-24 10:00N 67°12' W 053°42'0 0.0 1012.7 10.3
2016-Aug-24 09:00N 67°12' W 053°42'0 0.0 1013.1 10.3
2016-Aug-24 02:00N 67°12' W 053°42'0 0.0 1013.7 8.5
2016-Aug-24 01:00N 67°12' W 053°42'0 0.0 1014.1 7.8
2016-Aug-24 00:00N 67°12' W 053°42'0 0.0 1014.1 7.5
2016-Aug-23 23:00N 67°12' W 053°42'0 0.0 1014.3 8.3
2016-Aug-23 22:00N 67°12' W 053°42'0 0.0 1014.5 7.8
2016-Aug-23 20:00N 67°12' W 053°42'0 0.0 1014.5 7.0
2016-Aug-23 19:00N 67°12' W 053°42'0 0.0 1014.4 7.0
2016-Aug-23 18:00N 67°12' W 053°42'0 0.0 1014.1 7.5
2016-Aug-23 17:00N 67°12' W 053°42'5 4.7 1014.1 7.3
2016-Aug-23 16:00N 67°12' W 053°54'1212.2 1014.2 6.3
2016-Aug-23 15:00N 67°00' W 054°00'9 4.6 1014.4 5.0
2016-Aug-23 13:00N 66°54' W 053°42'0 0.0 1014.4 8.0
2016-Aug-23 11:00N 66°54' W 053°42'0 0.0 1014.8 7.3
2016-Aug-23 10:00N 66°54' W 053°42'0 0.0 1015.2 6.8
2016-Aug-23 09:00N 66°54' W 053°42'0 0.0 1015.6 7.0
2016-Aug-23 08:00N 66°54' W 053°42'0 0.0 1015.3 6.5
2016-Aug-23 07:00N 66°54' W 053°42'0 0.0 1015.4 7.3
2016-Aug-23 05:00N 66°54' W 053°42'0 0.0 1015.7 7.3
2016-Aug-23 03:00N 66°54' W 053°42'0 0.0 1016.5 7.0
2016-Aug-23 02:00N 66°54' W 053°42'0 0.0 1016.7 7.3
2016-Aug-23 01:00N 66°54' W 053°42'0 0.0 1016.6 6.8
2016-Aug-23 00:00N 66°54' W 053°42'0 0.0 1016.8 7.3
2016-Aug-22 23:00N 66°54' W 053°42'0 0.0 1016.7 7.0
2016-Aug-22 22:00N 66°54' W 053°42'0 0.0 1016.9 7.3
2016-Aug-22 21:00N 66°54' W 053°42'0 0.0 1016.5 8.8
2016-Aug-22 19:00N 66°54' W 053°42'0 0.0 1017.2 7.3
2016-Aug-22 18:00N 66°54' W 053°42'0 0.0 1017.8 6.8
2016-Aug-22 17:00N 66°54' W 053°42'0 0.0 1017.8 6.0
2016-Aug-22 15:00N 66°54' W 053°42'0 0.0 1018.6 3.5
2016-Aug-22 14:00N 66°54' W 053°42'0 0.0 1018.9 4.3
2016-Aug-22 13:00N 66°54' W 053°42'0 0.0 1019.5 4.8
2016-Aug-22 12:00N 66°54' W 053°42'0 0.0 1019.7 3.8
2016-Aug-22 10:00N 66°54' W 053°42'0 0.0 1019.9 2.5
2016-Aug-22 09:00N 66°54' W 053°42'0 0.0 1020.0 1.8
2016-Aug-22 08:00N 66°54' W 053°42'0 0.0 1020.2 1.3
2016-Aug-22 07:00N 66°54' W 053°42'0 0.0 1020.2 1.8
2016-Aug-22 06:00N 66°54' W 053°42'0 0.0 1020.3 2.3
2016-Aug-22 03:00N 66°54' W 053°42'0 0.0 1019.6 2.3
2016-Aug-22 01:00N 66°54' W 053°42'0 0.0 1019.6 2.8
2016-Aug-21 23:00N 66°54' W 053°42'0 0.0 1018.9 4.0
2016-Aug-21 22:00N 66°54' W 053°42'0 0.0 1019.0 4.3
2016-Aug-21 21:00N 66°54' W 053°42'0 0.0 1018.7 4.5
2016-Aug-21 20:00N 66°54' W 053°42'0 0.0 1018.9 5.0
2016-Aug-21 18:00N 66°54' W 053°42'0 0.0 1018.7 6.0
2016-Aug-21 17:00N 66°54' W 053°42'0 0.0 1018.4 5.8
2016-Aug-21 16:00N 66°54' W 053°42'0 0.0 1018.2 5.8
2016-Aug-21 15:00N 66°54' W 053°42'0 0.0 1017.8 4.5
2016-Aug-21 13:00N 66°54' W 053°42'0 0.0 1017.0 4.3
2016-Aug-21 11:00N 66°54' W 053°42'0 0.0 1016.1 4.3
2016-Aug-21 10:00N 66°54' W 053°42'0 0.0 1015.9 4.5
2016-Aug-21 08:00N 66°54' W 053°42'0 0.0 1015.3 3.8
2016-Aug-21 07:00N 66°54' W 053°42'0 0.0 1015.4 4.0
2016-Aug-21 04:00N 66°54' W 053°42'0 0.0 1014.9 4.8
2016-Aug-21 02:00N 66°54' W 053°42'0 0.0 1015.0 5.8
2016-Aug-21 01:00N 66°54' W 053°42'0 0.0 1014.8 6.3
2016-Aug-21 00:00N 66°54' W 053°42'0 0.0 1014.9 6.0
2016-Aug-20 22:00N 66°54' W 053°42'0 0.0 1015.2 6.8
2016-Aug-20 19:00N 66°54' W 053°42'0 0.0 1016.1 6.3
2016-Aug-20 18:00N 66°54' W 053°42'0 0.0 1016.3 6.8
2016-Aug-20 17:00N 66°54' W 053°42'0 0.0 1016.3 5.5
2016-Aug-20 16:00N 66°54' W 053°42'0 0.0 1016.4 6.3
2016-Aug-20 15:00N 66°54' W 053°42'0 0.0 1016.5 5.8
2016-Aug-20 14:00N 66°54' W 053°42'0 0.0 1016.8 5.3
2016-Aug-20 13:00N 66°54' W 053°42'0 0.0 1016.8 5.3
2016-Aug-20 12:00N 66°54' W 053°42'0 0.0 1016.9 4.8
2016-Aug-20 11:00N 66°54' W 053°42'0 0.0 1017.4 3.8
2016-Aug-20 10:00N 66°54' W 053°42'0 0.0 1017.4 3.8
2016-Aug-20 09:00N 66°54' W 053°42'0 0.0 1017.5 3.8
2016-Aug-20 08:00N 66°54' W 053°42'0 0.0 1017.2 4.0
2016-Aug-20 07:00N 66°54' W 053°42'0 0.0 1017.0 3.3
2016-Aug-20 04:00N 66°54' W 053°42'0 0.0 1017.0 3.8
2016-Aug-20 02:00N 66°54' W 053°42'0 0.0 1016.5 5.5
2016-Aug-20 00:00N 66°54' W 053°42'0 0.0 1016.4 5.5
2016-Aug-19 22:00N 66°54' W 053°42'15 5.1 1016.2 7.0
2016-Aug-19 19:00N 67°06' W 054°06'1212.2 1015.6 5.0
2016-Aug-19 18:00N 67°18' W 054°00'6 6.0 1015.2 4.5
2016-Aug-19 17:00N 67°24' W 054°00'6 6.4 1014.7 4.8
2016-Aug-19 16:00N 67°30' W 053°54'6 6.0 1014.6 5.0
2016-Aug-19 15:00N 67°36' W 053°54'9 9.1 1014.6 4.8
2016-Aug-19 14:00N 67°42' W 053°36'0 0.0 1014.5 6.5
2016-Aug-19 13:00N 67°42' W 053°36'0 0.0 1014.3 5.3
2016-Aug-19 12:00N 67°42' W 053°36'0 0.0 1014.0 5.0
2016-Aug-19 11:00N 67°42' W 053°36'0 0.0 1014.0 4.3
2016-Aug-19 10:00N 67°42' W 053°36'0 0.0 1013.8 5.0
2016-Aug-19 09:00N 67°42' W 053°36'0 0.0 1013.6 4.3
2016-Aug-19 08:00N 67°42' W 053°36'0 0.0 1013.5 3.5
2016-Aug-19 07:00N 67°42' W 053°36'0 0.0 1013.1 3.5
2016-Aug-19 03:00N 67°42' W 053°36'0 0.0 1011.6 3.0
2016-Aug-19 02:00N 67°42' W 053°36'0 0.0 1011.3 3.3
2016-Aug-19 00:00N 67°42' W 053°36'0 0.0 1010.9 3.8
2016-Aug-18 23:00N 67°42' W 053°36'0 0.0 1010.6 3.5
2016-Aug-18 22:00N 67°42' W 053°36'6 6.4 1010.2 3.8
2016-Aug-18 21:00N 67°36' W 053°42'18 9.0 1010.1 3.8
2016-Aug-18 19:00N 67°54' W 053°42'6 6.4 1008.5 3.8
2016-Aug-18 18:00N 68°00' W 053°36'6 6.0 1007.9 3.8
2016-Aug-18 17:00N 68°06' W 053°36'2 2.2 1007.5 4.3
2016-Aug-18 16:00N 68°06' W 053°30'1212.2 1007.3 2.8
2016-Aug-18 15:00N 68°18' W 053°36'2 2.2 1007.3 3.3
2016-Aug-18 14:00N 68°18' W 053°30'0 0.0 1007.1 7.5
2016-Aug-18 13:00N 68°18' W 053°30'0 0.0 1006.8 4.5
2016-Aug-18 11:00N 68°18' W 053°30'0 0.0 1006.6 4.0
2016-Aug-18 10:00N 68°18' W 053°30'0 0.0 1006.3 3.5
2016-Aug-18 09:00N 68°18' W 053°30'0 0.0 1006.2 3.5
2016-Aug-18 08:00N 68°18' W 053°30'0 0.0 1006.0 3.5
2016-Aug-18 07:00N 68°18' W 053°30'0 0.0 1005.8 3.5
2016-Aug-18 06:00N 68°18' W 053°30'0 0.0 1005.6 3.8
2016-Aug-18 05:00N 68°18' W 053°30'0 0.0 1005.6 3.8
2016-Aug-18 03:00N 68°18' W 053°30'0 0.0 1005.5 4.5
2016-Aug-18 02:00N 68°18' W 053°30'0 0.0 1005.6 5.3
2016-Aug-18 01:00N 68°18' W 053°30'0 0.0 1005.6 5.8
2016-Aug-17 22:00N 68°18' W 053°30'0 0.0 1005.4 7.0
2016-Aug-17 21:00N 68°18' W 053°30'0 0.0 1005.4 6.5
2016-Aug-17 20:00N 68°18' W 053°30'6 6.4 1005.4 5.3
2016-Aug-17 19:00N 68°24' W 053°24'7 7.4 1005.5 3.8
2016-Aug-17 18:00N 68°30' W 053°12'0 0.0 1005.3 4.8
2016-Aug-17 17:00N 68°30' W 053°12'2 2.2 1005.2 5.3
2016-Aug-17 16:00N 68°30' W 053°18'6 6.4 1005.3 5.5
2016-Aug-17 15:00N 68°36' W 053°12'7 7.4 1005.5 7.8
2016-Aug-17 14:00N 68°42' W 053°00'2 2.2 1005.6 7.3
2016-Aug-17 13:00N 68°42' W 052°54'0 0.0 1005.7 7.8
2016-Aug-17 11:00N 68°42' W 052°54'0 0.0 1005.6 6.0
2016-Aug-17 10:00N 68°42' W 052°54'0 0.0 1005.4 5.5
2016-Aug-17 09:00N 68°42' W 052°54'0 0.0 1005.4 5.8
2016-Aug-17 08:00N 68°42' W 052°54'0 0.0 1005.3 4.5
2016-Aug-17 07:00N 68°42' W 052°54'0 0.0 1005.1 4.3
2016-Aug-17 06:00N 68°42' W 052°54'0 0.0 1005.0 4.3
2016-Aug-17 05:00N 68°42' W 052°54'0 0.0 1004.7 4.8
2016-Aug-17 01:00N 68°42' W 052°54'0 0.0 1005.1 6.3
2016-Aug-17 00:00N 68°42' W 052°54'0 0.0 1004.9 7.0
2016-Aug-16 23:00N 68°42' W 052°54'0 0.0 1004.8 7.8
2016-Aug-16 22:00N 68°42' W 052°54'0 0.0 1004.7 8.3
2016-Aug-16 19:00N 68°42' W 052°54'19 6.5 1004.7 8.0
2016-Aug-16 16:00N 68°54' W 052°12'9 8.8 1004.6 8.0
2016-Aug-16 15:00N 69°00' W 051°54'9 8.8 1004.7 6.3
2016-Aug-16 14:00N 69°06' W 051°36'6 6.4 1004.7 5.5
2016-Aug-16 13:00N 69°06' W 051°18'6 6.4 1004.7 3.8
2016-Aug-16 12:00N 69°12' W 051°12'0 0.0 1004.8 4.5
2016-Aug-16 11:00N 69°12' W 051°12'2 2.1 1004.7 3.8
2016-Aug-16 10:00N 69°12' W 051°06'0 0.0 1004.4 5.3
2016-Aug-16 07:00N 69°12' W 051°06'0 0.0 1003.7 2.0
2016-Aug-16 06:00N 69°12' W 051°06'0 0.0 1003.5 2.8
2016-Aug-16 05:00N 69°12' W 051°06'0 0.0 1003.1 3.8
2016-Aug-16 04:00N 69°12' W 051°06'0 0.0 1002.9 4.8
2016-Aug-16 02:00N 69°12' W 051°06'2 2.1 1002.8 3.3
2016-Aug-16 01:00N 69°12' W 051°12'0 0.0 1002.5 2.3
2016-Aug-16 00:00N 69°12' W 051°12'7 7.4 1002.5 4.0
2016-Aug-15 23:00N 69°18' W 051°00'0 0.0 1001.9 5.0
2016-Aug-15 22:00N 69°18' W 051°00'0 0.0 1001.7 7.0
2016-Aug-15 21:00N 69°18' W 051°00'0 0.0 1001.8 7.0
2016-Aug-15 20:00N 69°18' W 051°00'0 0.0 1001.8 7.0
2016-Aug-15 19:00N 69°18' W 051°00'6 6.4 1001.6 6.5
2016-Aug-15 18:00N 69°12' W 051°06'0 0.0 1001.5 6.8
2016-Aug-15 17:00N 69°12' W 051°06'   1001.3 6.5

Dump ship's entire track history